Blue Ridge Observed Data For Previous 48 Hours

Caption
Day and Hour Reservoir Elevation (behind dam)* Tailwater Elevation (below dam)* Average Hourly Discharge*
10/17/2017 2 AM EDT 1,676.97 1,540.67 149
10/17/2017 3 AM EDT 1,676.97 1,540.67 149
10/17/2017 4 AM EDT 1,676.98 1,540.67 149
10/17/2017 5 AM EDT 1,676.99 1,540.67 149
10/17/2017 6 AM EDT 1,677.00 1,540.68 149
10/17/2017 7 AM EDT 1,676.98 1,540.67 149
10/17/2017 8 AM EDT 1,677.02 1,540.67 149
10/17/2017 9 AM EDT 1,677.01 1,540.67 149
10/17/2017 10 AM EDT 1,677.04 1,540.67 149
10/17/2017 11 AM EDT 1,677.01 1,540.67 149
10/17/2017 12 PM EDT 1,677.01 1,540.67 149
10/17/2017 1 PM EDT 1,677.05 1,540.67 149
10/17/2017 2 PM EDT 1,677.02 1,540.67 149
10/17/2017 3 PM EDT 1,677.00 1,540.68 149
10/17/2017 4 PM EDT 1,677.04 1,540.67 149
10/17/2017 5 PM EDT 1,677.04 1,540.62 149
10/17/2017 6 PM EDT 1,677.01 1,543.20 1,648
10/17/2017 7 PM EDT 1,676.96 1,543.30 1,732
10/17/2017 8 PM EDT 1,676.93 1,543.30 1,728
10/17/2017 9 PM EDT 1,676.90 1,543.30 1,731
10/17/2017 10 PM EDT 1,676.90 1,540.81 267
10/17/2017 11 PM EDT 1,676.92 1,540.68 147
10/18/2017 12 AM EDT 1,676.85 1,540.67 147
10/18/2017 1 AM EDT 1,676.90 1,540.67 147
10/18/2017 2 AM EDT 1,676.90 1,540.67 147
10/18/2017 3 AM EDT 1,676.93 1,540.67 147
10/18/2017 4 AM EDT 1,676.94 1,540.67 147
10/18/2017 5 AM EDT 1,676.95 1,540.67 147
10/18/2017 6 AM EDT 1,676.92 1,540.67 147
10/18/2017 7 AM EDT 1,676.93 1,540.67 147
10/18/2017 8 AM EDT 1,676.93 1,540.68 147
10/18/2017 9 AM EDT 1,676.97 1,540.67 147
10/18/2017 10 AM EDT 1,676.96 1,540.67 147
10/18/2017 11 AM EDT 1,676.97 1,540.67 147
10/18/2017 12 PM EDT 1,676.97 1,540.67 147
10/18/2017 1 PM EDT 1,676.96 1,540.67 147
10/18/2017 2 PM EDT 1,676.94 1,540.67 147
10/18/2017 3 PM EDT 1,676.94 1,540.67 147
10/18/2017 4 PM EDT 1,676.96 1,540.67 147
10/18/2017 5 PM EDT 1,676.94 1,540.66 147
10/18/2017 6 PM EDT 1,676.88 1,543.19 1,604
10/18/2017 7 PM EDT 1,676.86 1,543.27 1,732
10/18/2017 8 PM EDT 1,676.86 1,543.29 1,730
10/18/2017 9 PM EDT 1,676.75 1,543.29 1,731
10/18/2017 10 PM EDT 1,676.75 1,543.28 1,736
10/18/2017 11 PM EDT 1,676.76 1,540.81 269
10/19/2017 12 AM EDT 1,676.77 1,540.67 147
10/19/2017 1 AM EDT 1,676.78 1,540.68 147
10/19/2017 2 AM EDT 1,676.81 1,540.67 147
10/19/2017 3 AM EDT 1,676.80 1,540.67 147
10/19/2017 4 AM EDT 1,676.79 1,540.67 147
10/19/2017 5 AM EDT 1,676.79 1,540.67 147
10/19/2017 6 AM EDT 1,676.80 1,540.67 147
10/19/2017 7 AM EDT 1,676.81 1,540.67 147
10/19/2017 8 AM EDT 1,676.81 1,540.67 147
10/19/2017 9 AM EDT 1,676.80 1,540.67 147
10/19/2017 10 AM EDT 1,676.82 1,540.67 147
10/19/2017 11 AM EDT 1,676.83 1,540.67 147
10/19/2017 12 PM EDT 1,676.84 1,540.67 147
10/19/2017 1 PM EDT 1,676.84 1,540.67 147
10/19/2017 2 PM EDT 1,676.82 1,540.67 147
10/19/2017 3 PM EDT 1,676.82 1,540.67 147
10/19/2017 4 PM EDT 1,676.80 1,540.67 147
10/19/2017 5 PM EDT 1,676.79 1,540.63 147
10/19/2017 6 PM EDT 1,676.80 1,543.22 1,625

Elevations are in feet above sea level. Discharges are in cubic feet per second and are reported at the end of the hour.